»·PEaware :: VRD1930 KSFO-KLAX

VRD1930 :: KSFO-KLAX

FLIGHT INFORMATION

Flight Status: Arrived
Operator:
Virgin America
More flights by this operator :: More flights under this callsign
Pilot: Jerome G. (4242)
Aircraft: AIRBUS A320
(A320)
More flights by this aircraft type
Origin: KSFO San Francisco Intl
United States
Destination: KLAX Los Angeles Intl
United States
More flights between these airports :: More routes between these airports
Route: +SSTIK3 EBAYE BURGL IRNMN1
File this flight plan on PilotEdge
Remarks: RIP VRD
Altitude:
(Current/Filed)
30,000ft
Speed:
(Current/Filed)
450kts
Departed: 08-Jan-18 05:42 PM
Arrived: 08-Jan-18 06:43 PM
Distance/Time
Traveled:
293nm/1:01
Distance/Time
To Go:
Arrived

Flight Plot

Page will automatically refresh every two minutes.

Flight plan parsing failed; only flown route is shown


Map Options




Map Legend


Flown Route
Filed Route
Departure Airport
Arrival Airport
Navaid (VOR, NDB)
Fix

Horizontal Profiles

Position Reports

Time Latitude Longitude Heading Altitude Ground
Speed
08-Jan-18 17:16 37.617541 -122.380367 280 27ft 0kts
08-Jan-18 17:17 37.617541 -122.380367 280 27ft 0kts
08-Jan-18 17:18 37.617541 -122.380367 280 27ft 0kts
08-Jan-18 17:19 37.617541 -122.380367 280 27ft 0kts
08-Jan-18 17:20 37.617541 -122.380367 280 27ft 0kts
08-Jan-18 17:21 37.617541 -122.380367 280 27ft 0kts
08-Jan-18 17:22 37.617541 -122.380367 280 27ft 0kts
08-Jan-18 17:23 37.617541 -122.380367 280 27ft 0kts
08-Jan-18 17:24 37.617541 -122.380367 280 27ft 0kts
08-Jan-18 17:25 37.617541 -122.380367 280 27ft 0kts
08-Jan-18 17:26 37.617541 -122.380367 280 27ft 0kts
08-Jan-18 17:27 37.617541 -122.380367 280 27ft 0kts
08-Jan-18 17:28 37.617541 -122.380367 280 27ft 0kts
08-Jan-18 17:29 37.617541 -122.380367 280 27ft 0kts
08-Jan-18 17:30 37.617541 -122.380367 280 27ft 0kts
08-Jan-18 17:31 37.617541 -122.380367 280 27ft 0kts
08-Jan-18 17:32 37.617535 -122.380324 279 27ft 1kts
08-Jan-18 17:33 37.617520 -122.379545 230 27ft 2kts
08-Jan-18 17:34 37.617885 -122.379477 176 27ft 1kts
08-Jan-18 17:35 37.617885 -122.379477 176 27ft 0kts
08-Jan-18 17:36 37.617885 -122.379477 176 27ft 0kts
08-Jan-18 17:37 37.617884 -122.379477 176 27ft 0kts
08-Jan-18 17:38 37.617884 -122.379477 176 27ft 0kts
08-Jan-18 17:39 37.617884 -122.379477 176 27ft 0kts
08-Jan-18 17:40 37.617884 -122.379477 176 27ft 0kts
08-Jan-18 17:41 37.617883 -122.379477 176 27ft 0kts
08-Jan-18 17:42 37.617883 -122.379477 176 27ft 0kts
08-Jan-18 17:43 37.617843 -122.379475 176 27ft 1kts
08-Jan-18 17:44 37.615645 -122.380267 210 27ft 13kts
08-Jan-18 17:45 37.611147 -122.383260 207 27ft 22kts
08-Jan-18 17:46 37.609529 -122.383939 136 27ft 6kts
08-Jan-18 17:47 37.608562 -122.383655 150 27ft 5kts
08-Jan-18 17:48 37.614560 -122.378486 27 27ft 124kts
08-Jan-18 17:49 37.661784 -122.364753 7 2447ft 208kts
08-Jan-18 17:50 37.720063 -122.391686 290 4543ft 286kts
08-Jan-18 17:51 37.689172 -122.463692 188 8130ft 251kts
08-Jan-18 17:52 37.616056 -122.466972 183 10227ft 287kts
08-Jan-18 17:53 37.528520 -122.472237 182 11952ft 334kts
08-Jan-18 17:54 37.446789 -122.418730 136 14462ft 361kts
08-Jan-18 17:55 37.379555 -122.324650 137 16643ft 371kts
08-Jan-18 17:56 37.307874 -122.227986 137 18558ft 384kts
08-Jan-18 17:57 37.234065 -122.128212 137 20372ft 394kts
08-Jan-18 17:58 37.158542 -122.026432 137 22036ft 403kts
08-Jan-18 17:59 37.081159 -121.922482 137 23456ft 414kts
08-Jan-18 18:00 37.001444 -121.815795 137 24815ft 423kts
08-Jan-18 18:01 36.920860 -121.708214 138 26070ft 431kts
08-Jan-18 18:02 36.838005 -121.598104 138 27219ft 439kts
08-Jan-18 18:03 36.753840 -121.486480 138 28609ft 438kts
08-Jan-18 18:04 36.670527 -121.376365 139 30033ft 435kts
08-Jan-18 18:05 36.587368 -121.267004 139 30775ft 433kts
08-Jan-18 18:06 36.504659 -121.158282 139 30779ft 433kts
08-Jan-18 18:07 36.422141 -121.049332 137 30782ft 435kts
08-Jan-18 18:08 36.343052 -120.935134 136 30809ft 435kts
08-Jan-18 18:09 36.263834 -120.821864 136 30803ft 436kts
08-Jan-18 18:10 36.184555 -120.708608 136 30851ft 436kts
08-Jan-18 18:11 36.104900 -120.595202 136 30877ft 435kts
08-Jan-18 18:12 36.025449 -120.482525 136 30850ft 435kts
08-Jan-18 18:13 35.945561 -120.369485 136 30832ft 435kts
08-Jan-18 18:14 35.864296 -120.259246 146 30834ft 428kts
08-Jan-18 18:15 35.764621 -120.182687 153 30864ft 422kts
08-Jan-18 18:16 35.664094 -120.106669 153 30860ft 423kts
08-Jan-18 18:17 35.563780 -120.031104 153 30871ft 424kts
08-Jan-18 18:18 35.462978 -119.955278 153 30859ft 424kts
08-Jan-18 18:19 35.362375 -119.879806 154 30798ft 424kts
08-Jan-18 18:20 35.263634 -119.801534 149 30827ft 424kts
08-Jan-18 18:21 35.169266 -119.713012 149 30865ft 432kts
08-Jan-18 18:22 35.073604 -119.623892 149 30877ft 433kts
08-Jan-18 18:23 34.977509 -119.534658 149 30448ft 432kts
08-Jan-18 18:24 34.882794 -119.447224 150 28076ft 421kts
08-Jan-18 18:25 34.789604 -119.364475 149 25779ft 409kts
08-Jan-18 18:26 34.700941 -119.284682 149 24185ft 384kts
08-Jan-18 18:27 34.615627 -119.208367 149 21793ft 370kts
08-Jan-18 18:28 34.533921 -119.135892 150 19548ft 359kts
08-Jan-18 18:29 34.451888 -119.067725 150 18461ft 355kts
08-Jan-18 18:30 34.372431 -118.999175 149 16883ft 346kts
08-Jan-18 18:31 34.295445 -118.930722 148 15198ft 339kts
08-Jan-18 18:32 34.220776 -118.862476 147 13582ft 326kts
08-Jan-18 18:33 34.154596 -118.799984 144 12854ft 284kts
08-Jan-18 18:34 34.096350 -118.736343 143 11359ft 281kts
08-Jan-18 18:35 34.039708 -118.674563 139 10109ft 269kts
08-Jan-18 18:36 34.022430 -118.586775 100 8885ft 276kts
08-Jan-18 18:37 34.013902 -118.497847 101 7900ft 249kts
08-Jan-18 18:38 34.016498 -118.418220 80 6868ft 245kts
08-Jan-18 18:39 34.029188 -118.339348 86 5987ft 237kts
08-Jan-18 18:40 34.037060 -118.260502 87 5999ft 237kts
08-Jan-18 18:41 34.044994 -118.181637 87 5863ft 232kts
08-Jan-18 18:42 34.038254 -118.109700 146 4369ft 218kts
08-Jan-18 18:43 33.979134 -118.100406 201 3995ft 221kts
08-Jan-18 18:44 33.960195 -118.160998 261 3244ft 199kts
08-Jan-18 18:45 33.953237 -118.227627 262 2505ft 196kts
08-Jan-18 18:46 33.946832 -118.290258 262 1689ft 168kts
08-Jan-18 18:47 33.941829 -118.339146 262 876ft 139kts
08-Jan-18 18:48 33.936973 -118.386401 264 144ft 141kts
08-Jan-18 18:49 33.936580 -118.399786 287 140ft 3kts
08-Jan-18 18:50 33.936516 -118.401667 261 140ft 8kts
08-Jan-18 18:51 33.936933 -118.404120 319 140ft 8kts
08-Jan-18 18:52 33.938691 -118.405393 352 140ft 1kts
08-Jan-18 18:53 33.939869 -118.403133 345 140ft 11kts
08-Jan-18 18:54 33.941978 -118.403419 23 140ft 3kts
08-Jan-18 18:55 33.942140 -118.402840 81 140ft 0kts

Navigation Log

Ident Type
Flight plan parsing failed, navigation log unavailable